Latest Weather Observations for Coldstream

IDV60801

Issued at 8:35 pm EST Wednesday 16 April 2014 (issued every 30 minutes, with the page automatically refreshed every 10 minutes)

About weather observations | Map of weather stations | Latest weather observations for VIC | Other Formats
Station Details ID: 086383 Name: COLDSTREAM Lat: -37.72 Lon: 145.41 Height: 83.0 m
Data from the previous 72 hours. | See also: Recent months at Coldstream
Date/Time
EST
Temp
°C
App
Temp
°C
Dew
Point
Rel
Hum
%
Delta-T
°C
Wind Press
QNH
hPa
Press
MSL
hPa
Rain
since 9 am
mm
Dir
 
Spd
km/h
Gust
km/h
Spd
kts
Gust
kts
16/08:30pm 12.4 12.1 10.1 86 1.2 N 2 7 1 4 1020.2 - 0.0
16/08:00pm 13.1 13.3 10.5 84 1.4 E 0 0 0 0 1020.1 - 0.0
16/07:30pm 13.7 13.8 10.1 79 1.9 CALM 0 6 0 3 1019.9 - 0.0
16/07:00pm 15.3 15.4 10.3 72 2.6 CALM 0 0 0 0 1019.7 - 0.0
16/06:30pm 16.7 14.9 11.0 69 3.1 SW 11 17 6 9 1019.2 - 0.0
16/06:00pm 16.5 16.7 10.6 68 3.1 CALM 0 0 0 0 1018.8 1018.7 0.0
16/05:30pm 18.2 17.1 10.1 59 4.3 N 6 9 3 5 1018.6 - 0.0
16/05:00pm 19.5 18.1 9.7 53 5.2 N 7 13 4 7 1018.3 - 0.0
16/04:30pm 20.3 18.1 9.2 49 5.9 N 11 17 6 9 1018.2 - 0.0
16/04:00pm 20.9 19.0 10.4 51 5.7 N 11 17 6 9 1018.1 - 0.0
16/03:30pm 20.6 18.2 10.1 51 5.7 N 13 19 7 10 1018.2 - 0.0
16/03:00pm 21.1 18.8 10.3 50 5.9 N 13 19 7 10 1018.3 1018.2 0.0
16/02:30pm 20.9 18.4 9.8 49 6.0 NNE 13 20 7 11 1018.4 - 0.0
16/02:00pm 21.7 19.4 10.5 49 6.1 N 13 20 7 11 1018.5 - 0.0
16/01:30pm 21.3 18.9 10.2 49 6.0 N 13 17 7 9 1018.6 - 0.0
16/01:00pm 21.4 19.7 11.1 52 5.7 NNW 11 15 6 8 1018.9 - 0.0
16/12:30pm 20.5 19.4 12.0 58 4.8 WNW 9 15 5 8 1019.3 - 0.0
16/12:00pm 19.2 18.5 11.3 60 4.3 N 6 13 3 7 1019.9 1019.8 0.0
16/11:30am 17.8 17.2 11.8 68 3.3 WNW 6 9 3 5 1020.3 - 0.0
16/11:00am 16.5 16.7 11.9 74 2.5 NE 2 7 1 4 1020.6 - 0.0
16/10:30am 14.8 15.0 11.8 82 1.6 W 2 7 1 4 1021.0 - 0.0
16/10:00am 13.4 14.0 11.8 90 0.9 CALM 0 6 0 3 1021.2 - 0.0
16/09:30am 11.6 11.6 11.1 97 0.3 N 2 7 1 4 1021.4 - 0.0
16/09:00am 11.2 11.2 11.0 99 0.1 ENE 2 7 1 4 1021.4 1021.3 0.0
16/08:30am 11.2 10.4 11.0 99 0.1 E 6 7 3 4 1021.4 - 0.0
16/08:00am 10.8 9.3 10.6 99 0.1 E 9 11 5 6 1021.4 - 0.0
16/07:30am 10.4 8.8 10.2 99 0.1 E 9 11 5 6 1021.4 - 0.0
16/07:00am 10.4 9.2 10.2 99 0.1 E 7 11 4 6 1021.2 - 0.0
16/06:30am 10.3 10.4 10.1 99 0.1 CALM 0 0 0 0 1021.2 - 0.0
16/06:00am 10.1 10.1 9.9 99 0.1 SSE 0 0 0 0 1021.1 1021.0 0.0
16/05:30am 9.8 9.8 9.7 99 0.1 CALM 0 0 0 0 1021.0 - 0.0
16/05:00am 9.5 9.4 9.4 99 0.0 CALM 0 0 0 0 1020.8 - 0.0
16/04:30am 8.9 8.6 8.8 99 0.0 CALM 0 0 0 0 1020.7 - 0.0
16/04:00am 7.9 7.4 7.8 99 0.0 CALM 0 0 0 0 1020.6 - 0.0
16/03:30am 6.8 6.0 6.7 99 0.0 CALM 0 0 0 0 1020.7 - 0.0
16/03:00am 5.5 4.4 5.2 98 0.1 CALM 0 0 0 0 1020.8 1020.7 0.0
16/02:30am 5.2 4.0 4.8 97 0.2 CALM 0 0 0 0 1021.0 - 0.0
16/02:00am 6.2 4.9 5.9 98 0.1 SSE 2 6 1 3 1021.3 - 0.0
16/01:30am 5.6 4.5 5.2 97 0.2 CALM 0 0 0 0 1021.6 - 0.0
16/01:00am 6.1 5.1 5.5 96 0.3 S 0 6 0 3 1021.7 - 0.0
16/12:30am 6.0 4.9 5.3 95 0.3 CALM 0 0 0 0 1021.6 - 0.0
16/12:00am 6.3 5.3 5.4 94 0.4 SE 0 0 0 0 1021.7 1021.6 0.0
 
Date/Time
EST
Temp
°C
App
Temp
°C
Dew
Point
Rel
Hum
%
Delta-T
°C
Wind Press
QNH
hPa
Press
MSL
hPa
Rain
since 9 am
mm
Dir
 
Spd
km/h
Gust
km/h
Spd
kts
Gust
kts
15/11:30pm 7.4 6.6 6.5 94 0.4 CALM 0 0 0 0 1021.9 - 0.0
15/11:00pm 8.6 8.1 7.7 94 0.4 CALM 0 0 0 0 1022.1 - 0.0
15/10:30pm 9.5 8.8 8.4 93 0.5 NNE 2 7 1 4 1022.2 - 0.0
15/10:00pm 10.1 8.6 8.5 90 0.8 SSE 6 7 3 4 1022.3 - 0.0
15/09:30pm 10.7 8.7 8.6 87 1.0 ESE 9 9 5 5 1022.2 - 0.0
15/09:00pm 12.8 12.4 9.8 82 1.5 E 2 7 1 4 1022.2 1022.1 0.0
15/08:30pm 13.8 12.5 10.0 78 2.0 ESE 7 9 4 5 1021.9 - 0.0
15/08:00pm 15.1 12.4 10.5 74 2.4 SSE 15 20 8 11 1021.7 - 0.0
15/07:30pm 15.5 12.7 10.1 70 2.8 SSE 15 20 8 11 1021.6 - 0.0
15/07:00pm 16.0 14.3 9.9 67 3.2 SSE 9 15 5 8 1021.5 - 0.0
15/06:30pm 16.6 14.5 9.8 64 3.6 S 11 17 6 9 1021.2 - 0.0
15/06:00pm 17.1 15.4 10.0 63 3.7 SSE 9 17 5 9 1020.9 1020.8 0.0
15/05:30pm 18.0 16.0 10.1 60 4.2 SSE 11 20 6 11 1020.8 - 0.0
15/05:00pm 19.0 16.2 10.0 56 4.8 SSE 15 22 8 12 1020.8 - 0.0
15/04:30pm 19.3 17.4 10.6 57 4.7 SSE 11 19 6 10 1020.9 - 0.0
15/04:00pm 19.2 16.0 9.9 55 5.0 SSE 17 24 9 13 1021.0 - 0.0
15/03:30pm 20.4 18.5 10.5 53 5.4 SSW 11 17 6 9 1021.1 - 0.0
15/03:00pm 21.1 19.7 10.9 52 5.6 SSW 9 15 5 8 1021.3 1021.2 0.0
15/02:30pm 20.5 19.2 11.2 55 5.1 SSW 9 17 5 9 1021.4 - 0.0
15/02:00pm 20.9 19.1 10.7 52 5.6 SE 11 20 6 11 1021.4 - 0.0
15/01:30pm 19.6 18.2 10.9 57 4.8 SSW 9 15 5 8 1021.5 - 0.0
15/01:00pm 20.3 19.4 11.2 56 5.0 SE 7 17 4 9 1021.8 - 0.0
15/12:30pm 19.4 18.4 10.4 56 4.9 WSW 6 9 3 5 1022.2 - 0.0
15/12:00pm 18.8 18.4 11.1 61 4.2 NW 4 13 2 7 1022.7 1022.6 0.0
15/11:30am 18.1 18.2 11.4 65 3.7 SE 2 7 1 4 1023.1 - 0.0
15/11:00am 15.8 14.9 10.8 72 2.7 W 6 9 3 5 1023.5 - 0.0
15/10:30am 13.7 12.5 10.3 80 1.8 WNW 7 11 4 6 1023.7 - 0.0
15/10:00am 11.8 10.6 10.4 91 0.7 NW 7 13 4 7 1023.9 - 0.0
15/09:30am 10.6 9.6 10.4 99 0.1 NNW 6 9 3 5 1024.0 - 0.0
15/09:00am 8.6 7.1 8.5 99 0.0 NNW 6 9 3 5 1024.2 1024.1 0.0
15/08:30am 7.1 5.6 7.0 99 0.0 NNW 4 7 2 4 1024.2 - 0.0
15/08:00am 6.4 5.6 6.3 99 0.0 CALM 0 0 0 0 1024.0 - 0.0
15/07:30am 4.9 3.7 4.8 99 0.0 CALM 0 0 0 0 1023.8 - 0.0
15/07:00am 4.1 2.7 3.8 98 0.1 CALM 0 0 0 0 1023.4 - 0.0
15/06:30am 4.1 2.7 3.8 98 0.1 CALM 0 0 0 0 1023.3 - 0.0
15/06:00am 4.1 2.7 3.8 98 0.1 CALM 0 0 0 0 1023.1 1023.0 0.0
15/05:30am 3.9 2.5 3.6 98 0.1 CALM 0 0 0 0 1022.9 - 0.0
15/05:00am 4.0 2.2 3.6 97 0.2 N 2 7 1 4 1022.8 - 0.0
15/04:30am 4.1 2.7 3.7 97 0.2 CALM 0 0 0 0 1022.7 - 0.0
15/04:00am 4.4 3.1 4.0 97 0.2 CALM 0 0 0 0 1022.8 - 0.0
15/03:30am 4.5 3.2 3.9 96 0.3 CALM 0 0 0 0 1022.8 - 0.0
15/03:00am 5.5 4.4 4.9 96 0.3 CALM 0 0 0 0 1022.9 1022.8 0.0
15/02:30am 6.5 5.2 6.1 97 0.2 SSW 2 6 1 3 1023.0 - 0.0
15/02:00am 6.3 5.3 5.7 96 0.3 CALM 0 0 0 0 1023.0 - 0.0
15/01:30am 6.6 5.7 5.9 95 0.3 CALM 0 2 0 1 1023.2 - 0.0
15/01:00am 7.1 5.8 6.2 94 0.4 SSE 2 7 1 4 1023.1 - 0.0
15/12:30am 7.9 5.9 7.0 94 0.4 SSE 7 9 4 5 1023.2 - 0.0
15/12:00am 7.8 5.8 6.3 90 0.7 S 6 7 3 4 1023.1 1023.0 0.0
 
Date/Time
EST
Temp
°C
App
Temp
°C
Dew
Point
Rel
Hum
%
Delta-T
°C
Wind Press
QNH
hPa
Press
MSL
hPa
Rain
since 9 am
mm
Dir
 
Spd
km/h
Gust
km/h
Spd
kts
Gust
kts
14/11:30pm 9.1 7.3 7.2 88 0.9 S 6 9 3 5 1023.1 - 0.0
14/11:00pm 9.7 7.9 8.1 90 0.8 S 7 9 4 5 1023.2 - 0.0
14/10:30pm 9.4 7.7 7.5 88 0.9 S 6 7 3 4 1023.3 - 0.0
14/10:00pm 11.3 9.3 8.5 83 1.4 S 9 11 5 6 1023.3 - 0.0
14/09:30pm 11.6 9.6 7.1 74 2.2 S 7 9 4 5 1023.3 - 0.0
14/09:00pm 13.2 11.1 8.3 72 2.4 S 9 13 5 7 1023.2 1023.1 0.0
14/08:30pm 13.8 11.3 8.4 70 2.7 S 11 17 6 9 1023.0 - 0.0
14/08:00pm 13.3 11.3 8.8 74 2.3 SSE 9 13 5 7 1022.8 - 0.0
14/07:30pm 11.4 9.1 7.3 76 2.0 SE 9 13 5 7 1022.7 - 0.0
14/07:00pm 13.8 11.8 7.1 64 3.3 ESE 7 11 4 6 1022.5 - 0.0
14/06:30pm 15.7 12.3 7.5 58 4.1 SSE 15 20 8 11 1022.1 - 0.0
14/06:00pm 16.6 13.6 7.5 55 4.6 SSE 13 20 7 11 1021.6 1021.5 0.0
14/05:30pm 17.3 13.9 7.6 53 4.9 SSE 15 24 8 13 1021.4 - 0.0
14/05:00pm 17.9 13.0 7.0 49 5.5 SSE 22 32 12 17 1021.3 - 0.0
14/04:30pm 18.8 14.6 7.3 47 5.8 SSE 19 32 10 17 1021.1 - 0.0
14/04:00pm 19.4 15.1 7.8 47 6.0 SSE 20 30 11 16 1021.1 - 0.0
14/03:30pm 19.5 14.4 7.6 46 6.1 SSE 24 33 13 18 1021.2 - 0.0
14/03:00pm 19.4 14.6 7.2 45 6.2 SSE 22 33 12 18 1021.1 1021.0 0.0
14/02:30pm 19.2 14.0 7.3 46 6.1 SSE 24 35 13 19 1021.1 - 0.0
14/02:00pm 19.5 15.3 8.2 48 5.9 S 20 28 11 15 1021.3 - 0.0
14/01:30pm 19.5 15.2 7.9 47 6.0 SSE 20 32 11 17 1021.4 - 0.0
14/01:00pm 20.4 16.3 8.7 47 6.2 SSE 20 35 11 19 1021.9 - 0.0
14/12:30pm 19.6 15.8 7.7 46 6.1 SSE 17 30 9 16 1022.3 - 0.0
14/12:00pm 19.4 15.2 8.1 48 5.8 SE 20 32 11 17 1022.7 1022.6 0.0
14/11:30am 18.9 15.0 8.8 52 5.3 E 19 28 10 15 1022.8 - 0.0
14/11:00am 18.6 14.8 9.9 57 4.6 SE 20 32 11 17 1022.9 - 0.0
14/10:30am 17.7 16.7 11.0 65 3.6 ESE 7 20 4 11 1023.2 - 0.0
14/10:00am 15.2 14.4 11.8 80 1.8 N 7 9 4 5 1023.4 - 0.0
14/09:30am 11.9 10.5 10.8 93 0.6 N 9 11 5 6 1023.6 - 0.0
14/09:00am 10.4 8.7 9.8 96 0.3 N 9 13 5 7 1023.5 1023.4 0.0
14/08:30am 9.2 7.5 8.4 95 0.4 NNW 7 11 4 6 1023.4 - 0.0
14/08:00am 9.4 8.3 8.3 93 0.5 NNW 4 7 2 4 1023.2 - 0.0
14/07:30am 9.6 7.6 8.8 95 0.4 ESE 9 15 5 8 1022.8 - 0.0
14/07:00am 9.2 6.8 8.7 97 0.2 SE 11 20 6 11 1022.6 - 0.0
14/06:30am 9.3 6.9 8.5 95 0.4 SE 11 15 6 8 1022.3 - 0.0
14/06:00am 9.3 6.8 8.4 94 0.4 ESE 11 17 6 9 1022.2 1022.1 0.0
14/05:30am 9.6 6.5 8.7 94 0.4 SE 15 19 8 10 1022.1 - 0.0
14/05:00am 9.8 7.0 8.7 93 0.5 SE 13 17 7 9 1022.2 - 0.0
14/04:30am 10.4 7.0 9.2 92 0.6 SE 17 20 9 11 1022.0 - 0.0
14/04:00am 10.7 7.4 9.5 92 0.6 SSE 17 24 9 13 1021.9 - 0.0
14/03:30am 10.0 7.5 8.4 90 0.8 SSE 11 17 6 9 1021.8 - 0.0
14/03:00am 10.6 8.8 9.4 92 0.6 SSE 9 15 5 8 1021.8 1021.7 0.0
14/02:30am 8.3 7.3 7.2 93 0.5 SSE 2 7 1 4 1021.8 - 0.0
14/02:00am 9.1 8.2 7.9 92 0.6 NNE 2 9 1 5 1022.0 - 0.0
14/01:30am 11.1 10.5 9.0 87 1.0 W 2 6 1 3 1021.9 - 0.0
14/01:00am 12.2 9.7 9.8 85 1.2 SSE 13 17 7 9 1021.7 - 0.0
14/12:30am 12.8 9.7 10.2 84 1.3 SSE 17 22 9 12 1021.5 - 0.0
14/12:00am 13.0 9.3 10.2 83 1.4 SE 20 28 11 15 1021.5 1021.4 0.0
 
Date/Time
EST
Temp
°C
App
Temp
°C
Dew
Point
Rel
Hum
%
Delta-T
°C
Wind Press
QNH
hPa
Press
MSL
hPa
Rain
since 9 am
mm
Dir
 
Spd
km/h
Gust
km/h
Spd
kts
Gust
kts
13/11:30pm 13.1 9.1 10.3 83 1.5 SE 22 28 12 15 1021.6 - 0.0
13/11:00pm 13.6 10.0 10.4 81 1.7 SE 20 28 11 15 1021.8 - 0.0
13/10:30pm 13.8 11.4 10.2 79 1.9 SSE 13 20 7 11 1022.0 - 0.0
13/10:00pm 14.1 11.0 10.3 78 2.0 SSE 17 24 9 13 1021.9 - 0.0
13/09:30pm 14.1 11.8 10.5 79 1.9 SSE 13 19 7 10 1021.9 - 0.0
13/09:00pm 14.4 12.5 10.4 77 2.1 S 11 17 6 9 1021.9 1021.8 0.0

Other Formats:

Comma delimited format used in spreadsheet applications
http://www.bom.gov.au/fwo/IDV60801/IDV60801.94864.axf

JavaScript Object Notation format (JSON) in row-major order
http://www.bom.gov.au/fwo/IDV60801/IDV60801.94864.json